Time;durP1;ratioP1;P1;durP2;ratioP2;P2;SDS_P1;SDS_P2;PMS_P1;PMS_P2;Temp;Humidity;BMP_temperature;BMP_pressure;BME280_temperature;BME280_humidity;BME280_pressure;Samples;Min_cycle;Max_cycle;Signal;HPM_P1;HPM_P2
2022/04/01 00:00:10;;;;;;;;;;;3.10;73.30;;;;;;5057220;28;19908;-80
2022/04/01 00:02:36;;;;;;;;;;;3.10;73.40;;;;;;5056968;28;19958;-80
2022/04/01 00:05:02;;;;;;;;;;;3.10;73.10;;;;;;5059341;28;19909;-80
2022/04/01 00:07:28;;;;;;;;;;;3.00;73.20;;;;;;5059716;28;19978;-80
2022/04/01 00:09:53;;;;;;;;;;;3.00;73.20;;;;;;5060711;28;19916;-80
2022/04/01 00:12:19;;;;;;;;;;;3.00;73.20;;;;;;5060256;28;19909;-80
2022/04/01 00:14:45;;;;;;;;;;;3.00;73.10;;;;;;5060784;28;19909;-80
2022/04/01 00:17:10;;;;;;;;;;;2.90;73.20;;;;;;5060532;28;19995;-80
2022/04/01 00:19:36;;;;;;;;;;;2.90;73.30;;;;;;5060840;28;19909;-80
2022/04/01 00:22:02;;;;;;;;;;;2.90;73.00;;;;;;5060519;28;20000;-79
2022/04/01 00:24:28;;;;;;;;;;;2.90;73.10;;;;;;5060612;28;19992;-80
2022/04/01 00:26:53;;;;;;;;;;;2.80;73.00;;;;;;5059639;28;19925;-80
2022/04/01 00:29:20;;;;;;;;;;;2.80;72.70;;;;;;5059502;28;20256;-80
2022/04/01 00:31:48;;;;;;;;;;;2.70;72.90;;;;;;5060186;28;19948;-79
2022/04/01 00:34:17;;;;;;;;;;;2.70;72.80;;;;;;5060306;28;20371;-79
2022/04/01 00:36:47;;;;;;;;;;;2.70;73.40;;;;;;5059169;28;19909;-80
2022/04/01 00:39:13;;;;;;;;;;;2.70;73.20;;;;;;5060132;28;19913;-79
2022/04/01 00:41:39;;;;;;;;;;;2.60;73.20;;;;;;5059898;28;19939;-80
2022/04/01 00:44:17;;;;;;;;;;;2.60;73.30;;;;;;5058831;28;19915;-80
2022/04/01 00:46:44;;;;;;;;;;;2.60;73.40;;;;;;5047657;28;19913;-80
2022/04/01 00:49:10;;;;;;;;;;;2.50;73.70;;;;;;5058561;28;19925;-80
2022/04/01 00:51:37;;;;;;;;;;;2.50;73.80;;;;;;5060294;28;20391;-80
2022/04/01 00:54:03;;;;;;;;;;;2.50;74.10;;;;;;5059686;28;19916;-80
2022/04/01 00:56:31;;;;;;;;;;;2.60;74.10;;;;;;5059999;28;19931;-80
2022/04/01 00:58:57;;;;;;;;;;;2.50;73.90;;;;;;5059758;28;20380;-80
2022/04/01 01:01:22;;;;;;;;;;;2.60;73.80;;;;;;5058924;28;20269;-80
2022/04/01 01:03:49;;;;;;;;;;;2.60;73.80;;;;;;5059769;28;19999;-80
2022/04/01 01:06:16;;;;;;;;;;;2.60;73.60;;;;;;5058554;28;19909;-80
2022/04/01 01:08:42;;;;;;;;;;;2.50;73.30;;;;;;5059747;28;19917;-80
2022/04/01 01:11:08;;;;;;;;;;;2.60;73.10;;;;;;5059530;28;20011;-80
2022/04/01 01:13:34;;;;;;;;;;;2.50;73.00;;;;;;5059861;28;19952;-81
2022/04/01 01:16:00;;;;;;;;;;;2.60;72.90;;;;;;5059161;28;19919;-81
2022/04/01 01:18:25;;;;;;;;;;;2.50;72.90;;;;;;5058469;28;19913;-81
2022/04/01 01:20:51;;;;;;;;;;;2.50;72.80;;;;;;5059712;28;20284;-81
2022/04/01 01:23:17;;;;;;;;;;;2.50;72.80;;;;;;5059558;28;19916;-80
2022/04/01 01:25:42;;;;;;;;;;;2.50;72.90;;;;;;5059115;28;19913;-81
2022/04/01 01:28:08;;;;;;;;;;;2.50;72.90;;;;;;5057883;28;19943;-80
2022/04/01 01:30:34;;;;;;;;;;;2.50;72.70;;;;;;5058307;28;19916;-80
2022/04/01 01:33:01;;;;;;;;;;;2.40;72.80;;;;;;5059488;28;19916;-81
2022/04/01 01:35:28;;;;;;;;;;;2.40;73.00;;;;;;5046419;28;19908;-80
2022/04/01 01:37:54;;;;;;;;;;;2.40;72.70;;;;;;5059108;28;20337;-80
2022/04/01 01:40:20;;;;;;;;;;;2.40;72.70;;;;;;5059136;28;19908;-79
2022/04/01 01:42:46;;;;;;;;;;;2.40;72.70;;;;;;5057450;28;19909;-80
2022/04/01 01:45:11;;;;;;;;;;;2.40;72.70;;;;;;5059205;28;20459;-80
2022/04/01 01:47:37;;;;;;;;;;;2.40;72.70;;;;;;5063956;28;20007;-80
2022/04/01 01:55:32;;;;;;;;;;;2.40;72.80;;;;;;5078597;28;19916;-80
2022/04/01 01:57:58;;;;;;;;;;;2.30;72.50;;;;;;5078512;28;19913;-80
2022/04/01 02:00:24;;;;;;;;;;;2.30;72.80;;;;;;5078805;28;19908;-80
2022/04/01 02:02:49;;;;;;;;;;;2.30;72.70;;;;;;5078465;28;20387;-80
2022/04/01 02:05:16;;;;;;;;;;;2.30;72.60;;;;;;5078688;28;19915;-79
2022/04/01 02:07:47;;;;;;;;;;;2.30;72.70;;;;;;5078477;28;19908;-79
2022/04/01 02:10:15;;;;;;;;;;;2.40;72.80;;;;;;5060763;28;19939;-79
2022/04/01 02:12:43;;;;;;;;;;;2.50;73.10;;;;;;5065423;28;20006;-79
2022/04/01 02:15:10;;;;;;;;;;;2.40;72.70;;;;;;5060697;28;20271;-79
2022/04/01 02:17:40;;;;;;;;;;;2.40;72.90;;;;;;5078348;28;19920;-79
2022/04/01 02:20:09;;;;;;;;;;;2.40;72.90;;;;;;5078333;28;20327;-79
2022/04/01 02:22:38;;;;;;;;;;;2.30;72.60;;;;;;5078551;28;19908;-79
2022/04/01 02:25:07;;;;;;;;;;;2.30;72.50;;;;;;5078329;28;19912;-79
2022/04/01 02:27:33;;;;;;;;;;;2.30;72.70;;;;;;5077042;28;20351;-79
2022/04/01 02:29:59;;;;;;;;;;;2.20;72.80;;;;;;5060345;28;19908;-79
2022/04/01 02:32:25;;;;;;;;;;;2.20;73.00;;;;;;5078227;28;19915;-79
2022/04/01 02:34:50;;;;;;;;;;;2.20;72.90;;;;;;5078110;28;19969;-79
2022/04/01 02:37:25;;;;;;;;;;;2.10;72.90;;;;;;5078062;28;19912;-79
2022/04/01 02:39:50;;;;;;;;;;;2.10;72.60;;;;;;5077876;28;20049;-79
2022/04/01 02:42:16;;;;;;;;;;;2.00;72.50;;;;;;5077810;28;19948;-79
2022/04/01 02:44:42;;;;;;;;;;;2.00;72.60;;;;;;5078025;28;19909;-79
2022/04/01 02:47:08;;;;;;;;;;;2.00;72.30;;;;;;5077902;28;19909;-79
2022/04/01 02:49:34;;;;;;;;;;;2.00;72.20;;;;;;5078051;28;19912;-79
2022/04/01 02:52:00;;;;;;;;;;;1.90;72.10;;;;;;5077954;28;19912;-79
2022/04/01 02:54:26;;;;;;;;;;;1.90;72.20;;;;;;5077683;28;19939;-79
2022/04/01 02:56:52;;;;;;;;;;;1.90;72.20;;;;;;5077792;28;19999;-80
2022/04/01 02:59:17;;;;;;;;;;;1.80;72.20;;;;;;5059757;28;19948;-80
2022/04/01 03:01:43;;;;;;;;;;;1.80;72.40;;;;;;5078147;28;19908;-80
2022/04/01 03:04:10;;;;;;;;;;;1.80;72.40;;;;;;5059680;28;19913;-80
2022/04/01 03:06:39;;;;;;;;;;;1.70;72.50;;;;;;5077836;28;19909;-81
2022/04/01 03:09:08;;;;;;;;;;;1.70;72.50;;;;;;5077665;28;19999;-81
2022/04/01 03:11:37;;;;;;;;;;;1.70;72.40;;;;;;5077641;28;20003;-81
2022/04/01 03:14:03;;;;;;;;;;;1.60;72.30;;;;;;5077630;28;19908;-81
2022/04/01 03:16:28;;;;;;;;;;;1.60;72.80;;;;;;5077668;28;20279;-80
2022/04/01 03:18:57;;;;;;;;;;;1.60;72.80;;;;;;5077506;28;19965;-81
2022/04/01 03:21:24;;;;;;;;;;;1.60;73.90;;;;;;5077716;28;19909;-80
2022/04/01 03:23:50;;;;;;;;;;;1.60;73.60;;;;;;5077646;28;19908;-80
2022/04/01 03:26:15;;;;;;;;;;;1.60;73.40;;;;;;5077097;28;19908;-80
2022/04/01 03:28:41;;;;;;;;;;;1.60;73.30;;;;;;5077090;28;19909;-80
2022/04/01 03:31:09;;;;;;;;;;;1.60;73.00;;;;;;5077848;28;19974;-80
2022/04/01 03:33:36;;;;;;;;;;;1.50;72.80;;;;;;5077332;28;19908;-80
2022/04/01 03:36:02;;;;;;;;;;;1.50;72.90;;;;;;5077554;28;20279;-80
2022/04/01 03:38:28;;;;;;;;;;;1.50;72.90;;;;;;5077330;28;19935;-80
2022/04/01 03:40:54;;;;;;;;;;;1.40;72.80;;;;;;5080590;28;20322;-80
2022/04/01 03:43:21;;;;;;;;;;;1.40;73.00;;;;;;5063261;28;19952;-80
2022/04/01 03:45:48;;;;;;;;;;;1.40;73.00;;;;;;5063834;28;19931;-80
2022/04/01 03:48:24;;;;;;;;;;;1.30;73.60;;;;;;5080922;28;19921;-80
2022/04/01 03:50:56;;;;;;;;;;;1.30;73.10;;;;;;5081182;28;19962;-79
2022/04/01 03:53:25;;;;;;;;;;;1.20;73.20;;;;;;5081475;28;19915;-80
2022/04/01 03:55:51;;;;;;;;;;;1.20;73.40;;;;;;5080670;28;19917;-80
2022/04/01 03:58:18;;;;;;;;;;;1.20;73.40;;;;;;5081211;28;19912;-80
2022/04/01 04:00:44;;;;;;;;;;;1.10;73.80;;;;;;5081005;28;19983;-80
2022/04/01 04:03:10;;;;;;;;;;;1.10;74.30;;;;;;5081098;28;19908;-80
2022/04/01 04:05:37;;;;;;;;;;;1.10;74.70;;;;;;5081027;28;19948;-80
2022/04/01 04:08:06;;;;;;;;;;;1.10;75.20;;;;;;5081142;28;20003;-80
2022/04/01 04:10:34;;;;;;;;;;;1.10;75.20;;;;;;5062847;28;19948;-80
2022/04/01 04:13:00;;;;;;;;;;;1.20;74.90;;;;;;5080917;28;20062;-80
2022/04/01 04:15:26;;;;;;;;;;;1.20;75.30;;;;;;5080901;28;19987;-79
2022/04/01 04:17:54;;;;;;;;;;;1.20;75.10;;;;;;5080715;28;19959;-79
2022/04/01 04:20:32;;;;;;;;;;;1.20;75.70;;;;;;5062568;28;20404;-80
2022/04/01 04:23:13;;;;;;;;;;;1.20;76.00;;;;;;5080498;28;20287;-80
2022/04/01 04:25:39;;;;;;;;;;;1.30;75.70;;;;;;5068097;28;19908;-79
2022/04/01 04:28:10;;;;;;;;;;;1.30;76.30;;;;;;5080187;28;19915;-79
2022/04/01 04:30:48;;;;;;;;;;;1.40;76.60;;;;;;5067367;28;20272;-79
2022/04/01 04:33:16;;;;;;;;;;;1.60;77.00;;;;;;5080195;28;19908;-79
2022/04/01 04:35:42;;;;;;;;;;;1.70;77.30;;;;;;5080525;28;19915;-79
2022/04/01 04:38:10;;;;;;;;;;;1.80;77.30;;;;;;5080140;28;19944;-78
2022/04/01 04:40:36;;;;;;;;;;;1.90;77.40;;;;;;5079894;28;19912;-79
2022/04/01 04:43:02;;;;;;;;;;;1.90;77.30;;;;;;5080196;28;19954;-79
2022/04/01 04:45:28;;;;;;;;;;;2.00;77.60;;;;;;5080403;28;19913;-80
2022/04/01 04:47:54;;;;;;;;;;;2.10;78.10;;;;;;5079994;28;19921;-80
2022/04/01 04:50:21;;;;;;;;;;;2.10;77.70;;;;;;5062141;28;19909;-79
2022/04/01 04:52:49;;;;;;;;;;;2.10;77.50;;;;;;5061214;28;20252;-80
2022/04/01 04:55:19;;;;;;;;;;;2.10;77.60;;;;;;5080037;28;19962;-80
2022/04/01 04:57:47;;;;;;;;;;;2.10;77.50;;;;;;5061735;28;20368;-80
2022/04/01 05:00:13;;;;;;;;;;;2.10;77.40;;;;;;5062041;28;19935;-79
2022/04/01 05:02:45;;;;;;;;;;;2.10;77.50;;;;;;5079760;28;19912;-79
2022/04/01 05:05:18;;;;;;;;;;;2.10;77.40;;;;;;5079979;28;20432;-79
2022/04/01 05:08:00;;;;;;;;;;;2.10;77.20;;;;;;5067644;28;19908;-79
2022/04/01 05:10:52;;;;;;;;;;;2.10;77.20;;;;;;5079439;28;20329;-79
2022/04/01 05:13:18;;;;;;;;;;;2.10;78.00;;;;;;5076951;28;19960;-78
2022/04/01 05:15:50;;;;;;;;;;;2.20;78.20;;;;;;5079956;28;19908;-79
2022/04/01 05:18:22;;;;;;;;;;;2.30;78.10;;;;;;5079426;28;20018;-77
2022/04/01 05:20:56;;;;;;;;;;;2.30;78.00;;;;;;5079646;28;20291;-78
2022/04/01 05:23:28;;;;;;;;;;;2.40;77.90;;;;;;5079604;28;19908;-77
2022/04/01 05:26:00;;;;;;;;;;;2.40;77.40;;;;;;5079034;28;19908;-79
2022/04/01 05:28:30;;;;;;;;;;;2.40;77.20;;;;;;5059995;28;20003;-71
2022/04/01 05:31:04;;;;;;;;;;;2.40;77.50;;;;;;5079413;28;19909;-80
2022/04/01 05:33:37;;;;;;;;;;;2.40;77.70;;;;;;5079182;28;20306;-77
2022/04/01 05:36:04;;;;;;;;;;;2.40;77.60;;;;;;5061224;28;19912;-78
2022/04/01 05:38:32;;;;;;;;;;;2.40;77.20;;;;;;5061283;28;20267;-80
2022/04/01 05:40:58;;;;;;;;;;;2.40;77.40;;;;;;5078703;28;19909;-78
2022/04/01 05:43:24;;;;;;;;;;;2.40;77.60;;;;;;5078988;28;19908;-79
2022/04/01 05:45:53;;;;;;;;;;;2.40;77.80;;;;;;5061398;28;19916;-78
2022/04/01 05:48:20;;;;;;;;;;;2.50;78.00;;;;;;5078657;28;19999;-79
2022/04/01 05:50:46;;;;;;;;;;;2.60;78.00;;;;;;5078947;28;19935;-82
2022/04/01 05:53:14;;;;;;;;;;;2.70;78.00;;;;;;5065694;28;19908;-81
2022/04/01 05:55:40;;;;;;;;;;;2.80;78.00;;;;;;5078375;28;20374;-79
2022/04/01 05:58:06;;;;;;;;;;;2.80;78.00;;;;;;5078969;28;19913;-81
2022/04/01 06:00:41;;;;;;;;;;;2.90;77.80;;;;;;5078701;28;19951;-79
2022/04/01 06:03:18;;;;;;;;;;;3.00;77.60;;;;;;5078542;28;19953;-76
2022/04/01 06:05:48;;;;;;;;;;;3.00;77.50;;;;;;5078665;28;19908;-73
2022/04/01 06:08:19;;;;;;;;;;;3.10;77.40;;;;;;5078496;28;19908;-73
2022/04/01 06:10:51;;;;;;;;;;;3.10;77.20;;;;;;5078199;28;19908;-72
2022/04/01 06:13:29;;;;;;;;;;;3.20;77.00;;;;;;5078691;28;19966;-74
2022/04/01 06:15:57;;;;;;;;;;;3.20;76.90;;;;;;5082012;28;20379;-76
2022/04/01 06:18:33;;;;;;;;;;;3.30;76.60;;;;;;5078389;28;19912;-76
2022/04/01 06:21:01;;;;;;;;;;;3.30;76.70;;;;;;5077954;28;19995;-76
2022/04/01 06:23:26;;;;;;;;;;;3.40;76.40;;;;;;5078264;28;19987;-76
2022/04/01 06:25:55;;;;;;;;;;;3.40;76.40;;;;;;5076319;28;19944;-77
2022/04/01 06:28:27;;;;;;;;;;;3.50;76.60;;;;;;5073639;28;19970;-76
2022/04/01 06:30:55;;;;;;;;;;;3.60;78.10;;;;;;5077987;28;20275;-77
2022/04/01 06:33:39;;;;;;;;;;;3.60;79.00;;;;;;5063592;28;19909;-77
2022/04/01 06:36:06;;;;;;;;;;;3.60;79.20;;;;;;5076402;28;19917;-76
2022/04/01 06:38:48;;;;;;;;;;;3.70;79.70;;;;;;5077197;28;20295;-76
2022/04/01 06:41:21;;;;;;;;;;;3.70;79.70;;;;;;5077110;28;19908;-76
2022/04/01 06:43:48;;;;;;;;;;;3.80;79.70;;;;;;5077284;28;19955;-76
2022/04/01 06:46:13;;;;;;;;;;;3.80;79.80;;;;;;5077427;28;19966;-76
2022/04/01 06:48:40;;;;;;;;;;;3.80;80.40;;;;;;5077244;28;19924;-80
2022/04/01 06:51:08;;;;;;;;;;;3.90;79.70;;;;;;5077290;28;19913;-76
2022/04/01 06:53:36;;;;;;;;;;;3.90;79.60;;;;;;5077653;28;19916;-80
2022/04/01 06:56:03;;;;;;;;;;;4.00;79.40;;;;;;5077080;28;20295;-76
2022/04/01 06:58:30;;;;;;;;;;;4.10;79.30;;;;;;5059187;28;19913;-76
2022/04/01 07:00:56;;;;;;;;;;;4.10;79.30;;;;;;5077229;28;19908;-76
2022/04/01 07:03:21;;;;;;;;;;;4.30;79.40;;;;;;5077511;28;19909;-76
2022/04/01 07:05:47;;;;;;;;;;;4.40;79.30;;;;;;5077364;28;19909;-77
2022/04/01 07:08:15;;;;;;;;;;;4.60;79.50;;;;;;5077691;28;19912;-76
2022/04/01 07:10:41;;;;;;;;;;;4.70;79.10;;;;;;5077291;28;19951;-76
2022/04/01 07:13:06;;;;;;;;;;;4.80;78.50;;;;;;5077367;28;19909;-76
2022/04/01 07:15:32;;;;;;;;;;;4.80;77.60;;;;;;5076595;28;19913;-76
2022/04/01 07:17:59;;;;;;;;;;;4.80;77.10;;;;;;5077045;28;19920;-77
2022/04/01 07:20:25;;;;;;;;;;;4.90;76.90;;;;;;5076788;28;19908;-77
2022/04/01 07:22:54;;;;;;;;;;;4.80;76.40;;;;;;5077814;28;19908;-77
2022/04/01 07:25:21;;;;;;;;;;;4.90;75.60;;;;;;5077075;28;19916;-76
2022/04/01 07:27:46;;;;;;;;;;;4.80;75.30;;;;;;5075454;28;19916;-74
2022/04/01 07:30:12;;;;;;;;;;;4.80;74.90;;;;;;5058908;28;19909;-76
2022/04/01 07:32:39;;;;;;;;;;;4.80;73.40;;;;;;5077344;28;20446;-75
2022/04/01 07:35:09;;;;;;;;;;;4.80;72.40;;;;;;5077197;28;19908;-76
2022/04/01 07:37:35;;;;;;;;;;;4.80;72.40;;;;;;5077381;28;19917;-76
2022/04/01 07:40:01;;;;;;;;;;;4.80;71.70;;;;;;5077085;28;19913;-76
2022/04/01 07:42:28;;;;;;;;;;;4.80;71.70;;;;;;5076956;28;19909;-75
2022/04/01 07:44:54;;;;;;;;;;;4.90;71.70;;;;;;5077018;28;19915;-76
2022/04/01 07:47:21;;;;;;;;;;;4.90;71.70;;;;;;5077007;28;19972;-76
2022/04/01 07:49:47;;;;;;;;;;;4.90;71.70;;;;;;5076904;28;19912;-76
2022/04/01 07:52:13;;;;;;;;;;;5.00;71.70;;;;;;5077318;28;19909;-76
2022/04/01 07:54:40;;;;;;;;;;;5.10;71.90;;;;;;5076641;28;19920;-76
2022/04/01 07:57:07;;;;;;;;;;;5.20;72.20;;;;;;5076736;28;19909;-75
2022/04/01 07:59:33;;;;;;;;;;;5.50;73.10;;;;;;5077062;28;19995;-76
2022/04/01 08:01:59;;;;;;;;;;;5.90;74.20;;;;;;5077288;28;19908;-76
2022/04/01 08:04:27;;;;;;;;;;;6.70;73.60;;;;;;5076768;28;19953;-76
2022/04/01 08:06:53;;;;;;;;;;;7.60;73.20;;;;;;5076710;28;19963;-76
2022/04/01 08:09:19;;;;;;;;;;;8.50;69.20;;;;;;5076618;28;19949;-76
2022/04/01 08:11:45;;;;;;;;;;;9.00;68.90;;;;;;5076379;28;19912;-75
2022/04/01 08:14:12;;;;;;;;;;;9.60;68.20;;;;;;5076472;28;19966;-76
2022/04/01 08:16:38;;;;;;;;;;;10.20;66.30;;;;;;5076457;28;19912;-76
2022/04/01 08:19:04;;;;;;;;;;;10.60;64.80;;;;;;5076425;28;19912;-76
2022/04/01 08:21:31;;;;;;;;;;;11.00;64.10;;;;;;5076591;28;19978;-76
2022/04/01 08:23:57;;;;;;;;;;;11.20;61.90;;;;;;5076532;28;19913;-76
2022/04/01 08:26:23;;;;;;;;;;;11.30;60.30;;;;;;5077094;28;19909;-76
2022/04/01 08:28:50;;;;;;;;;;;11.20;60.10;;;;;;5079567;28;20399;-76
2022/04/01 08:31:15;;;;;;;;;;;11.10;59.80;;;;;;5079895;28;19927;-76
2022/04/01 08:33:41;;;;;;;;;;;11.10;59.30;;;;;;5079804;28;19908;-75
2022/04/01 08:36:07;;;;;;;;;;;11.00;58.60;;;;;;5079999;28;20663;-76
2022/04/01 08:38:33;;;;;;;;;;;10.80;58.80;;;;;;5079824;28;19919;-76
2022/04/01 08:40:58;;;;;;;;;;;10.60;58.10;;;;;;5079398;28;19908;-77
2022/04/01 08:43:28;;;;;;;;;;;10.20;58.60;;;;;;5079726;28;19908;-76
2022/04/01 08:45:54;;;;;;;;;;;9.90;59.00;;;;;;5061938;28;20003;-76
2022/04/01 08:48:20;;;;;;;;;;;9.60;59.30;;;;;;5079165;28;19920;-76
2022/04/01 08:50:46;;;;;;;;;;;9.60;60.00;;;;;;5079999;28;19919;-76
2022/04/01 08:53:12;;;;;;;;;;;10.00;63.10;;;;;;5078990;28;19909;-76
2022/04/01 08:55:38;;;;;;;;;;;10.90;60.70;;;;;;5061507;28;19923;-76
2022/04/01 08:58:04;;;;;;;;;;;11.80;58.30;;;;;;5079534;28;20280;-76
2022/04/01 09:00:30;;;;;;;;;;;12.60;57.60;;;;;;5079903;28;19915;-76
2022/04/01 09:03:01;;;;;;;;;;;12.80;56.70;;;;;;5066501;28;19915;-76
2022/04/01 09:05:26;;;;;;;;;;;12.90;55.40;;;;;;5079440;28;19915;-76
2022/04/01 09:08:01;;;;;;;;;;;12.70;55.10;;;;;;5079764;28;19908;-76
2022/04/01 09:10:27;;;;;;;;;;;12.40;55.20;;;;;;5079040;28;19938;-76
2022/04/01 09:12:53;;;;;;;;;;;12.10;55.60;;;;;;5079238;28;19909;-76
2022/04/01 09:15:19;;;;;;;;;;;11.70;55.90;;;;;;5079552;28;19919;-76
2022/04/01 09:17:46;;;;;;;;;;;11.40;56.00;;;;;;5079409;28;19920;-76
2022/04/01 09:20:12;;;;;;;;;;;11.10;55.80;;;;;;5079157;28;19908;-76
2022/04/01 09:22:38;;;;;;;;;;;11.00;55.40;;;;;;5079578;28;19908;-76
2022/04/01 09:25:08;;;;;;;;;;;10.70;55.40;;;;;;5079159;28;19908;-76
2022/04/01 09:27:40;;;;;;;;;;;10.80;58.10;;;;;;5078169;28;19915;-76
2022/04/01 09:30:06;;;;;;;;;;;11.30;58.50;;;;;;5079058;28;19938;-76
2022/04/01 09:32:39;;;;;;;;;;;12.00;60.00;;;;;;5079324;28;19909;-76
2022/04/01 09:35:06;;;;;;;;;;;13.00;57.50;;;;;;5078635;28;19936;-76
2022/04/01 09:37:42;;;;;;;;;;;13.50;53.50;;;;;;5078270;28;19916;-76
2022/04/01 09:40:09;;;;;;;;;;;13.50;53.40;;;;;;5078275;28;20413;-76
2022/04/01 09:42:34;;;;;;;;;;;13.70;55.70;;;;;;5078429;28;19974;-76
2022/04/01 09:45:00;;;;;;;;;;;14.10;54.20;;;;;;5060518;28;19912;-76
2022/04/01 09:47:26;;;;;;;;;;;14.70;54.20;;;;;;5060300;28;19916;-76
2022/04/01 09:49:55;;;;;;;;;;;15.40;54.80;;;;;;5060714;28;19909;-76
2022/04/01 09:52:22;;;;;;;;;;;16.20;53.40;;;;;;5078687;28;20356;-76
2022/04/01 09:54:51;;;;;;;;;;;16.60;50.70;;;;;;5078385;28;20256;-76
2022/04/01 09:57:19;;;;;;;;;;;16.20;49.40;;;;;;5077932;28;20340;-76
2022/04/01 09:59:45;;;;;;;;;;;15.80;49.80;;;;;;5078222;28;19916;-76
2022/04/01 10:02:11;;;;;;;;;;;15.70;50.40;;;;;;5078259;28;19991;-76
2022/04/01 10:04:37;;;;;;;;;;;15.90;51.90;;;;;;5078491;28;19955;-76
2022/04/01 10:07:03;;;;;;;;;;;16.10;47.70;;;;;;5078439;28;19912;-76
2022/04/01 10:09:32;;;;;;;;;;;16.20;49.30;;;;;;5078580;28;19923;-76
2022/04/01 10:11:59;;;;;;;;;;;16.30;49.30;;;;;;5077654;28;19908;-76
2022/04/01 10:14:26;;;;;;;;;;;16.60;50.80;;;;;;5078106;28;20420;-76
2022/04/01 10:16:54;;;;;;;;;;;16.80;49.70;;;;;;5078388;28;19947;-76
2022/04/01 10:19:24;;;;;;;;;;;16.60;48.30;;;;;;5078339;28;19923;-76
2022/04/01 10:21:51;;;;;;;;;;;16.50;48.30;;;;;;5060251;28;20042;-76
2022/04/01 10:24:32;;;;;;;;;;;16.90;50.70;;;;;;5078087;28;19909;-76
2022/04/01 10:27:00;;;;;;;;;;;17.50;50.40;;;;;;5076808;28;20272;-76
2022/04/01 10:29:26;;;;;;;;;;;18.30;47.20;;;;;;5059557;28;19947;-76
2022/04/01 10:32:15;;;;;;;;;;;18.70;45.50;;;;;;5077631;28;20286;-76
2022/04/01 10:34:47;;;;;;;;;;;18.60;43.50;;;;;;5077622;28;19996;-76
2022/04/01 10:37:14;;;;;;;;;;;18.20;44.40;;;;;;5077971;28;19909;-76
2022/04/01 10:39:47;;;;;;;;;;;17.90;44.60;;;;;;5076692;28;20359;-76
2022/04/01 10:42:13;;;;;;;;;;;17.80;45.10;;;;;;5077536;28;20264;-76
2022/04/01 10:44:49;;;;;;;;;;;17.40;45.20;;;;;;5077699;28;20062;-76
2022/04/01 10:47:15;;;;;;;;;;;17.10;45.90;;;;;;5077372;28;19909;-76
2022/04/01 10:52:24;;;;;;;;;;;17.00;45.00;;;;;;5077838;28;19928;-73
2022/04/01 10:55:02;;;;;;;;;;;16.60;45.70;;;;;;5077927;28;19909;-73
2022/04/01 10:57:32;;;;;;;;;;;16.10;46.70;;;;;;5077024;28;20358;-78
2022/04/01 11:00:04;;;;;;;;;;;15.70;48.90;;;;;;5077600;28;19954;-76
2022/04/01 11:02:30;;;;;;;;;;;16.00;48.60;;;;;;5077688;28;19908;-80
2022/04/01 11:04:56;;;;;;;;;;;16.60;49.80;;;;;;5059843;28;19915;-75
2022/04/01 11:07:21;;;;;;;;;;;17.10;47.00;;;;;;5077375;28;19952;-82
2022/04/01 11:09:50;;;;;;;;;;;17.10;47.00;;;;;;5059452;28;20019;-81
2022/04/01 11:12:16;;;;;;;;;;;16.70;46.30;;;;;;5059091;28;19912;-81
2022/04/01 11:17:20;;;;;;;;;;;16.00;48.90;;;;;;5077360;28;19916;-78
2022/04/01 11:19:59;;;;;;;;;;;16.40;50.70;;;;;;5059746;28;19944;-77
2022/04/01 11:22:38;;;;;;;;;;;17.00;50.10;;;;;;5049235;28;20314;-76
2022/04/01 11:25:04;;;;;;;;;;;17.80;47.20;;;;;;5058856;28;19915;-74
2022/04/01 11:27:30;;;;;;;;;;;18.00;46.10;;;;;;5077130;28;20439;-74
2022/04/01 11:30:09;;;;;;;;;;;17.70;44.10;;;;;;5076966;28;19952;-75
2022/04/01 11:32:35;;;;;;;;;;;17.10;44.10;;;;;;5077308;28;20395;-75
2022/04/01 11:35:02;;;;;;;;;;;16.40;44.70;;;;;;5076534;28;19908;-75
2022/04/01 11:37:28;;;;;;;;;;;16.10;46.80;;;;;;5077338;28;19912;-76
2022/04/01 11:40:05;;;;;;;;;;;16.20;46.90;;;;;;5076960;28;19916;-75
2022/04/01 11:42:31;;;;;;;;;;;16.50;46.50;;;;;;5077127;28;20007;-74
2022/04/01 11:44:58;;;;;;;;;;;16.80;46.60;;;;;;5077227;28;19962;-75
2022/04/01 11:47:37;;;;;;;;;;;17.30;46.80;;;;;;5076850;28;19999;-75
2022/04/01 11:50:06;;;;;;;;;;;17.80;45.80;;;;;;5064980;28;19908;-75
2022/04/01 11:52:36;;;;;;;;;;;18.30;47.80;;;;;;5077395;28;19931;-75
2022/04/01 11:55:02;;;;;;;;;;;18.60;45.00;;;;;;5076838;28;19960;-74
2022/04/01 11:57:29;;;;;;;;;;;18.80;43.30;;;;;;5077025;28;19915;-75
2022/04/01 11:59:59;;;;;;;;;;;18.70;43.70;;;;;;5077626;28;20280;-76
2022/04/01 12:02:24;;;;;;;;;;;18.70;44.00;;;;;;5080911;28;20386;-79
2022/04/01 12:04:50;;;;;;;;;;;18.40;42.10;;;;;;5062950;28;19913;-75
2022/04/01 12:10:01;;;;;;;;;;;18.20;44.10;;;;;;5080646;28;19978;-75
2022/04/01 12:12:26;;;;;;;;;;;18.50;44.20;;;;;;5062981;28;19991;-76
2022/04/01 12:14:56;;;;;;;;;;;18.70;43.00;;;;;;5080787;28;19962;-73
2022/04/01 12:17:22;;;;;;;;;;;18.90;43.60;;;;;;5067567;28;19909;-73
2022/04/01 12:19:48;;;;;;;;;;;18.70;41.50;;;;;;5080318;28;19909;-74
2022/04/01 12:22:14;;;;;;;;;;;18.20;41.30;;;;;;5080680;28;20011;-74
2022/04/01 12:24:40;;;;;;;;;;;17.70;41.10;;;;;;5080037;28;19909;-74
2022/04/01 12:27:09;;;;;;;;;;;17.40;43.20;;;;;;5079080;28;19961;-73
2022/04/01 12:29:35;;;;;;;;;;;16.90;43.70;;;;;;5079805;28;19943;-75
2022/04/01 12:32:05;;;;;;;;;;;16.60;43.80;;;;;;5079700;28;19912;-73
2022/04/01 12:34:31;;;;;;;;;;;16.70;44.70;;;;;;5080199;28;20329;-74
2022/04/01 12:37:04;;;;;;;;;;;16.90;44.40;;;;;;5080063;28;20394;-74
2022/04/01 12:39:31;;;;;;;;;;;17.20;45.80;;;;;;5079517;28;20050;-73
2022/04/01 12:41:57;;;;;;;;;;;17.50;45.40;;;;;;5079928;28;19916;-74
2022/04/01 12:44:26;;;;;;;;;;;17.60;42.80;;;;;;5079906;28;20367;-73
2022/04/01 12:46:53;;;;;;;;;;;17.50;43.70;;;;;;5080199;28;19962;-74
2022/04/01 12:49:20;;;;;;;;;;;17.50;44.60;;;;;;5079766;28;19928;-73
2022/04/01 12:51:48;;;;;;;;;;;17.50;43.70;;;;;;5080187;28;19915;-74
2022/04/01 12:54:23;;;;;;;;;;;17.30;43.10;;;;;;5079866;28;19908;-74
2022/04/01 12:56:50;;;;;;;;;;;17.00;43.40;;;;;;5079246;28;19909;-74
2022/04/01 12:59:17;;;;;;;;;;;17.10;44.40;;;;;;5079643;28;19913;-74
2022/04/01 13:01:54;;;;;;;;;;;17.30;44.90;;;;;;5080119;28;19916;-74
2022/04/01 13:04:20;;;;;;;;;;;17.30;42.80;;;;;;5078739;28;19915;-75
2022/04/01 13:07:04;;;;;;;;;;;17.20;42.50;;;;;;5079862;28;19908;-74
2022/04/01 13:09:31;;;;;;;;;;;16.90;43.40;;;;;;5067654;28;19951;-73
2022/04/01 13:12:04;;;;;;;;;;;16.40;44.10;;;;;;5078566;28;19909;-73
2022/04/01 13:14:33;;;;;;;;;;;16.00;45.10;;;;;;5079569;28;19912;-74
2022/04/01 13:16:59;;;;;;;;;;;15.60;44.20;;;;;;5075540;28;20372;-73
2022/04/01 13:19:29;;;;;;;;;;;15.30;45.50;;;;;;5079626;28;20011;-73
2022/04/01 13:21:56;;;;;;;;;;;14.90;45.90;;;;;;5079327;28;19916;-73
2022/04/01 13:24:24;;;;;;;;;;;14.60;47.50;;;;;;5079442;28;19913;-73
2022/04/01 13:26:49;;;;;;;;;;;14.40;48.40;;;;;;5078351;28;19920;-73
2022/04/01 13:29:15;;;;;;;;;;;14.20;48.80;;;;;;5079234;28;19909;-73
2022/04/01 13:31:41;;;;;;;;;;;14.10;48.40;;;;;;5078721;28;19920;-73
2022/04/01 13:34:07;;;;;;;;;;;14.10;48.40;;;;;;5078843;28;19908;-73
2022/04/01 13:36:33;;;;;;;;;;;14.20;48.70;;;;;;5078856;28;19962;-73
2022/04/01 13:38:59;;;;;;;;;;;14.30;47.70;;;;;;5079197;28;20402;-72
2022/04/01 13:41:25;;;;;;;;;;;14.20;46.20;;;;;;5074943;28;19917;-72
2022/04/01 13:43:50;;;;;;;;;;;14.10;47.30;;;;;;5078995;28;20372;-72
2022/04/01 13:46:18;;;;;;;;;;;13.90;47.20;;;;;;5078781;28;19916;-72
2022/04/01 13:48:43;;;;;;;;;;;13.70;47.30;;;;;;5077977;28;19928;-73
2022/04/01 13:51:09;;;;;;;;;;;13.60;47.00;;;;;;5078598;28;20244;-73
2022/04/01 13:53:35;;;;;;;;;;;13.30;47.30;;;;;;5078792;28;19958;-72
2022/04/01 13:56:01;;;;;;;;;;;13.00;49.50;;;;;;5077733;28;19912;-72
2022/04/01 13:58:27;;;;;;;;;;;12.60;50.80;;;;;;5078669;28;19939;-72
2022/04/01 14:00:53;;;;;;;;;;;12.20;52.10;;;;;;5078455;28;19913;-72
2022/04/01 14:03:19;;;;;;;;;;;11.90;53.30;;;;;;5060605;28;19962;-72
2022/04/01 14:05:45;;;;;;;;;;;11.60;54.70;;;;;;5077814;28;20319;-72
2022/04/01 14:08:12;;;;;;;;;;;11.50;56.20;;;;;;5078568;28;19915;-72
2022/04/01 14:10:37;;;;;;;;;;;11.40;56.80;;;;;;5078008;28;20402;-73
2022/04/01 14:13:03;;;;;;;;;;;11.50;57.50;;;;;;5078121;28;19915;-73
2022/04/01 14:15:30;;;;;;;;;;;11.80;58.10;;;;;;5060442;28;19919;-73
2022/04/01 14:17:55;;;;;;;;;;;12.00;57.70;;;;;;5078267;28;19917;-73
2022/04/01 14:20:21;;;;;;;;;;;12.20;57.00;;;;;;5078298;28;19962;-73
2022/04/01 14:22:47;;;;;;;;;;;12.10;54.80;;;;;;5078115;28;19908;-72
2022/04/01 14:25:13;;;;;;;;;;;11.80;55.80;;;;;;5077771;28;19909;-72
2022/04/01 14:27:38;;;;;;;;;;;11.50;57.10;;;;;;5077322;28;20418;-72
2022/04/01 14:30:18;;;;;;;;;;;11.00;57.30;;;;;;5078093;28;19916;-72
2022/04/01 14:32:44;;;;;;;;;;;10.60;58.70;;;;;;5077739;28;19931;-72
2022/04/01 14:35:10;;;;;;;;;;;10.30;59.10;;;;;;5077707;28;19962;-72
2022/04/01 14:37:36;;;;;;;;;;;10.10;59.70;;;;;;5077724;28;19908;-74
2022/04/01 14:40:02;;;;;;;;;;;9.90;60.10;;;;;;5077134;28;19920;-71